Kware, Nigeria
Current Conditions -  °F | °C
As of 2:00 AM on Tuesday 23 Dec 2014 (Local Time) from DRRN Reporting Station
Clear Clear  
Wind Chill: 70°   Ceiling: Unl
Heat Index: 70°   Visibility: 6mi
Dew Point: 30°   Wind: 5mph
Humidity: 23%   Direction: 40°NE
Pressure: 30"   Gusts: NA
Location:  13.21°N, 5.27°E
Report Text: DRRN 230100Z 04004KT CAVOK 21/M01 Q1016 NOSIG
Loading
Personal Weather Stations






























Interactive Weather Map New forecast layout! Learn more

10-Day Weather Forecast

Advertisements
Track Severe Weather on mobile